Pagina principale
METAR-TAF:

METAR-TAF

Aeroporti :

Aeroporto di Bergamo-Orio al Serio

Bergamo, Italia

latitudine: 45-40N, longitudine: 009-42E, altezza: 238 m

Osservazione

Il bollettino è stato emesso 39 minuti fa, alle 13:20 UTC
Vento 3 kt da sud/sud-ovest, variando fra sud/sud-est e ovest/sud-ovest
Temperature 6°C
Umidità 75%
Pressione 1023 hPa
Visibilità: 8000 m
Nuvoloso ad un'altezza di 5500 ft

METAR: LIME 061320Z 20003KT 150V250 8000 BKN055 06/02 Q1023 NOSIG

Ora: 14:59 (13:59 UTC)

Previsione

Il bollettino è stato emesso 2 ore e 59 minuti fa, alle 11:00 UTC
Previsione valida dal 06 alle 12 UTC al 07 alle 12 UTC
Vento 5 kt da direzioni variabili
Visibilità: 7000 m
Nubi sparse ad un'altezza di 6000 ft

TAF: LIME 061100Z 0612/0712 VRB05KT 7000 SCT060

Osservazioni e previsioni meteorologiche di più di 4000 aeroporti (messaggi METAR e TAF).

Le stazioni disponibili sono rappresentate dai dischi gialli e rossi sulla carta.

Puntare il mouse per vedere il nome della stazione.

Clicca sopra per visualizzare le osservazioni e previsioni meteorologiche.

Per cambiare la mappa : fare clic sui pulsanti verdi con una croce nera per ingrandire, il pulsante verde con un trattino per diminuire, o sulla freccia verde per le mappe adiacenti.


METAR-TAF: